»·PEaware :: N81041 KSNA-KPSP

N81041 :: KSNA-KPSP

FLIGHT INFORMATION

Flight Status: Arrived
Operator: Privately registered:
United States
More flights under this callsign
Pilot: John C. (12173)
Aircraft: GRUMMAN AERO AA5 CHEETAH TIGER
(AA5)
More flights by this aircraft type
Origin: KSNA John Wayne-Orange Co
United States
Destination: KPSP Palm Springs Intl
United States
More flights between these airports :: More routes between these airports
Route: MUSEL8 TRM
File this flight plan on PilotEdge
Remarks:
Altitude:
(Current/Filed)
9,000ft
Speed:
(Current/Filed)
130kts
Departed: 21-Apr-19 05:54 PM
Arrived: 21-Apr-19 07:04 PM
Distance/Time
Traveled:
69nm/1:10
Distance/Time
To Go:
Arrived

Flight Plot

Page will automatically refresh every two minutes.


Map Options




Map Legend


Flown Route
Filed Route
Departure Airport
Arrival Airport
Navaid (VOR, NDB)
Fix

Horizontal Profiles

Position Reports

Time Latitude Longitude Heading Altitude Ground
Speed
21-Apr-19 17:43 33.676182 -117.870972 219 48ft 0kts
21-Apr-19 17:44 33.676182 -117.870972 219 48ft 0kts
21-Apr-19 17:45 33.676182 -117.870972 219 48ft 0kts
21-Apr-19 17:46 33.676182 -117.870972 219 48ft 0kts
21-Apr-19 17:47 33.676182 -117.870972 219 48ft 0kts
21-Apr-19 17:48 33.676182 -117.870972 219 48ft 0kts
21-Apr-19 17:49 33.676182 -117.870972 219 48ft 0kts
21-Apr-19 17:50 33.675826 -117.870675 119 48ft 9kts
21-Apr-19 17:51 33.678134 -117.868529 88 45ft 5kts
21-Apr-19 17:52 33.677850 -117.867868 146 45ft 14kts
21-Apr-19 17:53 33.674754 -117.869441 208 48ft 72kts
21-Apr-19 17:54 33.656762 -117.880552 207 1017ft 95kts
21-Apr-19 17:55 33.636539 -117.887515 197 2159ft 97kts
21-Apr-19 17:56 33.615593 -117.887321 128 3185ft 106kts
21-Apr-19 17:57 33.613899 -117.861667 86 4318ft 91kts
21-Apr-19 17:58 33.615037 -117.835596 83 5234ft 98kts
21-Apr-19 17:59 33.617144 -117.809850 80 6139ft 100kts
21-Apr-19 18:00 33.619535 -117.783003 80 7044ft 100kts
21-Apr-19 18:01 33.619656 -117.755460 80 7904ft 101kts
21-Apr-19 18:02 33.625825 -117.729009 70 8740ft 101kts
21-Apr-19 18:03 33.624429 -117.697997 95 9065ft 134kts
21-Apr-19 18:04 33.622999 -117.659090 87 8918ft 146kts
21-Apr-19 18:05 33.622438 -117.619056 88 8701ft 145kts
21-Apr-19 18:06 33.624336 -117.581020 82 8682ft 139kts
21-Apr-19 18:07 33.627306 -117.544201 77 8756ft 131kts
21-Apr-19 18:08 33.632981 -117.508857 77 8867ft 132kts
21-Apr-19 18:09 33.636828 -117.472795 72 9042ft 133kts
21-Apr-19 18:10 33.645920 -117.437981 79 9203ft 134kts
21-Apr-19 18:11 33.648554 -117.400418 85 9265ft 138kts
21-Apr-19 18:12 33.650660 -117.362276 84 9212ft 142kts
21-Apr-19 18:13 33.653234 -117.322368 82 8947ft 147kts
21-Apr-19 18:14 33.656940 -117.283830 82 8842ft 142kts
21-Apr-19 18:15 33.661825 -117.245563 84 8788ft 140kts
21-Apr-19 18:16 33.663257 -117.208153 87 8910ft 134kts
21-Apr-19 18:17 33.663813 -117.171239 87 8973ft 135kts
21-Apr-19 18:18 33.666782 -117.134318 79 9025ft 135kts
21-Apr-19 18:19 33.671196 -117.097517 80 9052ft 136kts
21-Apr-19 18:20 33.674222 -117.060187 82 9089ft 136kts
21-Apr-19 18:21 33.676124 -117.022138 80 8986ft 143kts
21-Apr-19 18:22 33.678963 -116.982928 87 8946ft 143kts
21-Apr-19 18:23 33.680730 -116.943505 81 8902ft 142kts
21-Apr-19 18:24 33.683647 -116.904783 80 8906ft 141kts
21-Apr-19 18:25 33.687621 -116.866108 82 8885ft 142kts
21-Apr-19 18:26 33.685758 -116.827178 98 8870ft 143kts
21-Apr-19 18:27 33.678497 -116.788847 103 8848ft 143kts
21-Apr-19 18:28 33.674829 -116.749882 91 8832ft 142kts
21-Apr-19 18:29 33.673498 -116.710475 88 8807ft 143kts
21-Apr-19 18:30 33.670409 -116.671501 95 8805ft 142kts
21-Apr-19 18:31 33.667515 -116.632197 91 8789ft 142kts
21-Apr-19 18:32 33.666369 -116.592960 89 8780ft 142kts
21-Apr-19 18:33 33.663499 -116.553785 95 8770ft 143kts
21-Apr-19 18:34 33.659775 -116.514557 93 8769ft 142kts
21-Apr-19 18:35 33.655965 -116.475647 94 8605ft 143kts
21-Apr-19 18:36 33.653392 -116.436986 94 8115ft 138kts
21-Apr-19 18:37 33.650706 -116.398910 93 7477ft 137kts
21-Apr-19 18:38 33.645688 -116.361483 97 6896ft 136kts
21-Apr-19 18:39 33.642657 -116.325859 94 6773ft 124kts
21-Apr-19 18:40 33.639184 -116.292261 92 6567ft 122kts
21-Apr-19 18:41 33.636382 -116.258538 98 6164ft 122kts
21-Apr-19 18:42 33.632126 -116.225155 87 5691ft 121kts
21-Apr-19 18:43 33.630217 -116.191869 95 5245ft 120kts
21-Apr-19 18:44 33.628250 -116.158571 95 4797ft 120kts
21-Apr-19 18:45 33.626298 -116.125575 92 4402ft 119kts
21-Apr-19 18:46 33.612351 -116.102647 203 3941ft 128kts
21-Apr-19 18:47 33.611386 -116.131235 300 3851ft 112kts
21-Apr-19 18:48 33.626085 -116.156150 297 3837ft 114kts
21-Apr-19 18:49 33.639454 -116.182033 309 3727ft 106kts
21-Apr-19 18:50 33.653582 -116.206902 301 3267ft 113kts
21-Apr-19 18:51 33.667692 -116.232230 305 2926ft 109kts
21-Apr-19 18:52 33.681918 -116.257456 301 2764ft 112kts
21-Apr-19 18:53 33.695875 -116.282493 307 2791ft 110kts
21-Apr-19 18:54 33.709881 -116.307648 303 2908ft 110kts
21-Apr-19 18:55 33.723109 -116.333557 301 2928ft 112kts
21-Apr-19 18:56 33.736794 -116.359259 304 2930ft 110kts
21-Apr-19 18:57 33.750773 -116.384604 304 2930ft 111kts
21-Apr-19 18:58 33.763589 -116.410530 305 2754ft 110kts
21-Apr-19 18:59 33.777816 -116.435218 308 2406ft 110kts
21-Apr-19 19:00 33.791400 -116.460158 304 2209ft 109kts
21-Apr-19 19:01 33.805293 -116.484138 320 1805ft 102kts
21-Apr-19 19:02 33.819470 -116.498572 340 692ft 79kts
21-Apr-19 19:03 33.830253 -116.508180 322 428ft 34kts
21-Apr-19 19:04 33.834386 -116.510764 52 439ft 15kts
21-Apr-19 19:05 33.833913 -116.507544 143 431ft 13kts
21-Apr-19 19:06 33.831975 -116.505564 78 426ft 0kts

Navigation Log

Ident Type
Flight plan parsing failed, navigation log unavailable